Time;durP1;ratioP1;P1;durP2;ratioP2;P2;SDS_P1;SDS_P2;PMS_P1;PMS_P2;Temp;Humidity;BMP_temperature;BMP_pressure;BME280_temperature;BME280_humidity;BME280_pressure;Samples;Min_cycle;Max_cycle;Signal;HPM_P1;HPM_P2
2021/11/14 00:01:52;;;;;;;;;;;;;;;10.97;57.71;101516.23;117513;1182;24137;-60
2021/11/14 00:04:20;;;;;;;;;;;;;;;10.95;57.56;101516.41;117509;1182;24139;-60
2021/11/14 00:06:49;;;;;;;;;;;;;;;10.93;57.61;101517.09;117572;1185;23448;-62
2021/11/14 00:09:17;;;;;;;;;;;;;;;10.92;57.72;101514.13;117518;1182;23531;-60
2021/11/14 00:11:46;;;;;;;;;;;;;;;10.93;57.48;101513.59;117571;1184;22439;-60
2021/11/14 00:14:14;;;;;;;;;;;;;;;10.93;57.56;101512.70;117521;1185;22620;-60
2021/11/14 00:16:42;;;;;;;;;;;;;;;10.92;57.53;101514.28;117585;1185;24142;-62
2021/11/14 00:19:11;;;;;;;;;;;;;;;10.92;57.45;101506.56;117523;1179;24117;-62
2021/11/14 00:21:41;;;;;;;;;;;;;;;10.92;57.49;101505.15;117533;1182;21836;-62
2021/11/14 00:24:13;;;;;;;;;;;;;;;10.91;57.57;101505.14;117497;1183;23519;-62
2021/11/14 00:26:41;;;;;;;;;;;;;;;10.89;57.68;101506.90;118458;1176;21839;-62
2021/11/14 00:29:09;;;;;;;;;;;;;;;10.87;57.64;101506.36;117506;1184;22191;-62
2021/11/14 00:31:37;;;;;;;;;;;;;;;10.85;57.49;101503.19;117394;1183;24128;-62
2021/11/14 00:34:05;;;;;;;;;;;;;;;10.86;57.62;101497.92;117560;1184;22240;-62
2021/11/14 00:36:37;;;;;;;;;;;;;;;10.84;57.40;101497.58;117641;1183;23537;-62
2021/11/14 00:39:07;;;;;;;;;;;;;;;10.85;57.56;101496.86;117489;1182;23553;-61
2021/11/14 00:41:35;;;;;;;;;;;;;;;10.83;57.41;101495.98;117513;1185;21835;-62
2021/11/14 00:44:04;;;;;;;;;;;;;;;10.83;57.38;101497.21;117456;1184;23420;-62
2021/11/14 00:46:32;;;;;;;;;;;;;;;10.82;57.59;101499.84;117902;1182;21839;-61
2021/11/14 00:49:00;;;;;;;;;;;;;;;10.81;57.61;101500.02;117388;1182;22822;-60
2021/11/14 00:51:29;;;;;;;;;;;;;;;10.82;57.49;101495.80;117451;1185;23449;-62
2021/11/14 00:53:58;;;;;;;;;;;;;;;10.85;57.50;101493.52;117467;1186;22254;-62
2021/11/14 00:56:26;;;;;;;;;;;;;;;10.84;57.35;101495.46;117562;1183;22880;-59
2021/11/14 00:58:54;;;;;;;;;;;;;;;10.78;57.44;101490.70;117559;1186;21886;-60
2021/11/14 01:01:22;;;;;;;;;;;;;;;10.75;57.49;101491.05;117509;1183;23420;-60
2021/11/14 01:03:51;;;;;;;;;;;;;;;10.73;57.46;101491.55;117421;1182;23579;-59
2021/11/14 01:06:19;;;;;;;;;;;;;;;10.72;57.49;101488.91;117503;1186;23455;-61
2021/11/14 01:08:48;;;;;;;;;;;;;;;10.74;57.69;101485.23;117536;1185;23423;-60
2021/11/14 01:11:29;;;;;;;;;;;;;;;10.69;57.46;101482.39;117482;1182;23888;-60
2021/11/14 01:13:58;;;;;;;;;;;;;;;10.67;57.53;101483.78;117531;1182;23439;-61
2021/11/14 01:16:27;;;;;;;;;;;;;;;10.67;57.64;101479.23;117534;1186;23491;-62
2021/11/14 01:18:55;;;;;;;;;;;;;;;10.69;57.34;101483.27;117527;1184;21830;-60
2021/11/14 01:21:27;;;;;;;;;;;;;;;10.85;57.18;101490.90;117529;1185;21835;-62
2021/11/14 01:23:56;;;;;;;;;;;;;;;10.94;56.90;101488.48;117544;1182;21873;-62
2021/11/14 01:26:24;;;;;;;;;;;;;;;10.95;56.94;101485.67;117611;1185;21885;-62
2021/11/14 01:28:53;;;;;;;;;;;;;;;10.96;56.90;101483.92;117546;1185;21839;-60
2021/11/14 01:31:21;;;;;;;;;;;;;;;10.97;56.82;101478.31;117405;1182;23059;-59
2021/11/14 01:33:50;;;;;;;;;;;;;;;10.96;56.82;101482.16;117469;1185;22610;-62
2021/11/14 01:36:18;;;;;;;;;;;;;;;10.96;56.76;101482.52;117438;1188;21849;-59
2021/11/14 01:38:46;;;;;;;;;;;;;;;10.95;56.81;101481.98;117378;1185;23443;-60
2021/11/14 01:41:14;;;;;;;;;;;;;;;10.95;56.97;101476.38;117440;1186;23422;-62
2021/11/14 01:43:43;;;;;;;;;;;;;;;10.96;56.78;101484.45;117396;1185;21853;-61
2021/11/14 01:46:11;;;;;;;;;;;;;;;10.92;56.98;101485.13;117445;1186;21839;-61
2021/11/14 01:48:40;;;;;;;;;;;;;;;10.91;56.85;101479.86;117527;1184;22705;-61
2021/11/14 01:51:08;;;;;;;;;;;;;;;10.91;56.86;101481.96;117504;1184;21836;-60
2021/11/14 01:53:37;;;;;;;;;;;;;;;10.92;56.93;101481.80;117424;1185;23459;-61
2021/11/14 01:56:05;;;;;;;;;;;;;;;10.90;56.96;101483.73;117473;1183;23648;-59
2021/11/14 01:58:34;;;;;;;;;;;;;;;10.85;57.00;101481.06;117457;1182;22906;-60
2021/11/14 02:01:04;;;;;;;;;;;;;;;10.76;57.08;101483.31;117603;1182;23439;-60
2021/11/14 02:03:33;;;;;;;;;;;;;;;10.74;57.25;101482.60;117516;1182;23541;-60
2021/11/14 02:06:04;;;;;;;;;;;;;;;10.78;57.16;101484.20;117547;1183;23432;-60
2021/11/14 02:08:32;;;;;;;;;;;;;;;10.87;56.97;101490.73;117497;1182;22961;-60
2021/11/14 02:11:00;;;;;;;;;;;;;;;10.88;56.86;101487.92;117525;1183;23449;-61
2021/11/14 02:13:29;;;;;;;;;;;;;;;10.87;57.02;101487.39;117512;1179;24139;-61
2021/11/14 02:15:58;;;;;;;;;;;;;;;10.87;56.80;101488.80;117505;1187;21841;-59
2021/11/14 02:18:26;;;;;;;;;;;;;;;10.85;56.92;101487.39;117573;1183;23493;-62
2021/11/14 02:20:54;;;;;;;;;;;;;;;10.86;56.87;101491.77;117472;1182;23445;-60
2021/11/14 02:23:22;;;;;;;;;;;;;;;10.86;56.79;101490.20;117394;1185;21838;-60
2021/11/14 02:25:51;;;;;;;;;;;;;;;10.86;56.97;101488.44;117444;1185;21839;-62
2021/11/14 02:28:19;;;;;;;;;;;;;;;10.83;56.98;101485.98;117459;1185;21845;-62
2021/11/14 02:30:48;;;;;;;;;;;;;;;10.78;57.01;101486.48;117443;1185;23472;-60
2021/11/14 02:33:17;;;;;;;;;;;;;;;10.78;57.02;101487.18;117409;1182;22624;-60
2021/11/14 02:35:47;;;;;;;;;;;;;;;10.72;57.13;101488.55;117472;1183;23422;-62
2021/11/14 02:38:16;;;;;;;;;;;;;;;10.62;57.19;101487.27;117491;1176;21863;-60
2021/11/14 02:40:44;;;;;;;;;;;;;;;10.55;57.43;101495.50;117560;1184;23547;-59
2021/11/14 02:43:12;;;;;;;;;;;;;;;10.52;57.43;101493.02;117527;1185;21836;-61
2021/11/14 02:45:40;;;;;;;;;;;;;;;10.50;57.45;101481.42;117550;1182;24152;-62
2021/11/14 02:48:09;;;;;;;;;;;;;;;10.47;57.62;101483.87;117338;1183;24120;-61
2021/11/14 02:50:38;;;;;;;;;;;;;;;10.47;57.52;101494.91;117361;1182;21962;-62
2021/11/14 02:53:06;;;;;;;;;;;;;;;10.45;57.64;101497.89;117409;1185;23420;-59
2021/11/14 02:55:34;;;;;;;;;;;;;;;10.46;57.53;101499.11;117493;1183;23426;-60
2021/11/14 02:58:02;;;;;;;;;;;;;;;10.45;57.67;101492.45;117451;1185;23531;-60
2021/11/14 03:00:36;;;;;;;;;;;;;;;10.44;57.62;101499.45;117312;1183;21851;-60
2021/11/14 03:03:04;;;;;;;;;;;;;;;10.43;57.69;101502.79;117355;1185;23512;-62
2021/11/14 03:05:33;;;;;;;;;;;;;;;10.41;57.73;101500.15;117333;1185;23524;-59
2021/11/14 03:08:01;;;;;;;;;;;;;;;10.42;57.61;101497.34;117271;1186;21849;-60
2021/11/14 03:10:30;;;;;;;;;;;;;;;10.42;57.66;101495.05;117407;1185;23449;-60
2021/11/14 03:13:00;;;;;;;;;;;;;;;10.56;57.44;101498.13;117387;1185;23436;-60
2021/11/14 03:15:29;;;;;;;;;;;;;;;10.60;57.31;101495.52;117312;1176;21845;-59
2021/11/14 03:17:59;;;;;;;;;;;;;;;10.61;57.39;101494.30;117348;1184;23526;-62
2021/11/14 03:20:28;;;;;;;;;;;;;;;10.60;57.34;101492.90;117423;1185;22991;-62
2021/11/14 03:22:56;;;;;;;;;;;;;;;10.60;57.39;101490.78;117382;1185;22304;-61
2021/11/14 03:25:24;;;;;;;;;;;;;;;10.63;57.22;101485.88;117306;1185;21839;-60
2021/11/14 03:27:55;;;;;;;;;;;;;;;10.66;57.10;101484.85;117364;1183;21842;-60
2021/11/14 03:30:23;;;;;;;;;;;;;;;10.64;57.21;101488.34;117389;1185;23522;-59
2021/11/14 03:32:53;;;;;;;;;;;;;;;10.61;57.31;101490.95;117348;1182;23515;-60
2021/11/14 03:35:21;;;;;;;;;;;;;;;10.62;57.22;101486.75;117363;1185;21944;-60
2021/11/14 03:37:50;;;;;;;;;;;;;;;10.62;57.24;101485.70;117482;1183;22925;-62
2021/11/14 03:40:18;;;;;;;;;;;;;;;10.63;57.35;101484.30;117401;1183;21839;-59
2021/11/14 03:42:47;;;;;;;;;;;;;;;10.65;57.40;101479.21;117406;1185;21820;-60
2021/11/14 03:45:15;;;;;;;;;;;;;;;10.67;57.28;101482.04;117398;1185;22918;-62
2021/11/14 03:47:43;;;;;;;;;;;;;;;10.67;57.25;101478.17;117437;1185;21842;-62
2021/11/14 03:50:12;;;;;;;;;;;;;;;10.69;57.22;101478.36;117429;1183;24204;-62
2021/11/14 03:52:40;;;;;;;;;;;;;;;10.69;57.38;101478.00;117319;1184;23426;-60
2021/11/14 03:55:08;;;;;;;;;;;;;;;10.71;57.16;101480.83;117365;1185;21845;-60
2021/11/14 03:57:38;;;;;;;;;;;;;;;10.73;57.27;101482.77;117373;1182;23469;-62
2021/11/14 04:00:11;;;;;;;;;;;;;;;10.78;57.15;101485.61;117379;1184;23446;-60
2021/11/14 04:02:39;;;;;;;;;;;;;;;10.76;57.23;101488.23;117414;1184;21837;-60
2021/11/14 04:05:08;;;;;;;;;;;;;;;10.70;57.29;101483.98;117322;1182;21838;-62
2021/11/14 04:07:36;;;;;;;;;;;;;;;10.70;57.42;101485.92;117417;1184;21839;-60
2021/11/14 04:10:04;;;;;;;;;;;;;;;10.74;57.34;101483.30;117397;1182;21836;-60
2021/11/14 04:12:32;;;;;;;;;;;;;;;10.71;57.34;101478.20;117426;1183;24369;-60
2021/11/14 04:15:01;;;;;;;;;;;;;;;10.70;57.40;101475.21;117417;1183;23443;-60
2021/11/14 04:17:29;;;;;;;;;;;;;;;10.69;57.23;101470.80;117508;1185;22950;-61
2021/11/14 04:19:57;;;;;;;;;;;;;;;10.67;57.32;101474.14;117418;1185;21837;-62
2021/11/14 04:22:25;;;;;;;;;;;;;;;10.66;57.45;101476.59;117452;1185;21839;-60
2021/11/14 04:24:53;;;;;;;;;;;;;;;10.65;57.31;101478.16;117415;1184;23413;-60
2021/11/14 04:27:22;;;;;;;;;;;;;;;10.65;57.25;101477.11;117366;1182;21832;-60
2021/11/14 04:29:50;;;;;;;;;;;;;;;10.64;57.44;101480.44;117375;1182;23458;-60
2021/11/14 04:32:18;;;;;;;;;;;;;;;10.64;57.36;101479.74;117429;1183;23130;-60
2021/11/14 04:34:46;;;;;;;;;;;;;;;10.64;57.37;101481.67;117413;1182;23550;-60
2021/11/14 04:37:14;;;;;;;;;;;;;;;10.64;57.39;101481.14;117416;1186;23433;-62
2021/11/14 04:39:43;;;;;;;;;;;;;;;10.64;57.30;101482.55;117351;1182;23426;-60
2021/11/14 04:42:11;;;;;;;;;;;;;;;10.65;57.41;101485.89;117373;1185;22355;-62
2021/11/14 04:44:39;;;;;;;;;;;;;;;10.67;57.30;101485.36;117400;1186;23413;-62
2021/11/14 04:47:07;;;;;;;;;;;;;;;10.68;57.07;101486.60;117548;1185;23449;-60
2021/11/14 04:49:35;;;;;;;;;;;;;;;10.67;57.25;101490.99;117374;1182;21881;-61
2021/11/14 04:52:04;;;;;;;;;;;;;;;10.66;57.22;101492.56;117440;1179;21818;-60
2021/11/14 04:54:32;;;;;;;;;;;;;;;10.69;57.16;101494.86;117382;1184;21849;-61
2021/11/14 04:57:00;;;;;;;;;;;;;;;10.70;57.31;101496.62;117329;1182;24124;-60
2021/11/14 04:59:29;;;;;;;;;;;;;;;10.48;57.79;101497.02;117380;1182;23462;-60
2021/11/14 05:01:57;;;;;;;;;;;;;;;10.44;57.99;101499.98;117398;1182;23422;-60
2021/11/14 05:04:26;;;;;;;;;;;;;;;10.45;58.03;101504.38;117393;1185;23646;-61
2021/11/14 05:06:54;;;;;;;;;;;;;;;10.41;58.09;101505.06;117513;1183;23417;-61
2021/11/14 05:09:23;;;;;;;;;;;;;;;10.40;58.03;101506.29;117428;1184;23454;-60
2021/11/14 05:11:51;;;;;;;;;;;;;;;10.42;58.26;101502.42;117382;1185;21844;-62
2021/11/14 05:14:38;;;;;;;;;;;;;;;10.42;58.06;101507.34;117361;1185;22654;-60
2021/11/14 05:17:07;;;;;;;;;;;;;;;10.44;58.23;101510.16;117394;1183;22315;-59
2021/11/14 05:19:46;;;;;;;;;;;;;;;10.45;58.12;101514.39;117474;1180;23462;-62
2021/11/14 05:22:14;;;;;;;;;;;;;;;10.47;58.01;101517.04;117452;1185;22918;-59
2021/11/14 05:24:42;;;;;;;;;;;;;;;10.46;58.07;101520.35;117424;1185;22629;-62
2021/11/14 05:27:11;;;;;;;;;;;;;;;10.46;58.05;101519.83;117497;1185;21841;-59
2021/11/14 05:29:39;;;;;;;;;;;;;;;10.46;58.07;101517.19;117405;1182;21847;-62
2021/11/14 05:32:08;;;;;;;;;;;;;;;10.47;58.17;101520.20;117372;1182;24141;-62
2021/11/14 05:34:36;;;;;;;;;;;;;;;10.51;58.21;101525.83;117342;1183;23135;-60
2021/11/14 05:37:05;;;;;;;;;;;;;;;10.52;58.12;101531.10;117425;1183;23440;-61
2021/11/14 05:39:33;;;;;;;;;;;;;;;10.52;58.26;101536.71;117372;1185;21924;-62
2021/11/14 05:42:02;;;;;;;;;;;;;;;10.53;58.40;101536.02;117324;1182;24136;-61
2021/11/14 05:44:31;;;;;;;;;;;;;;;10.55;58.30;101529.90;117457;1185;23547;-60
2021/11/14 05:46:59;;;;;;;;;;;;;;;10.55;58.24;101522.88;117361;1185;21839;-60
2021/11/14 05:49:28;;;;;;;;;;;;;;;10.56;58.33;101530.26;117592;1185;24152;-61
2021/11/14 05:51:56;;;;;;;;;;;;;;;10.59;58.50;101534.48;117483;1185;21836;-60
2021/11/14 05:54:24;;;;;;;;;;;;;;;10.61;58.29;101538.52;117415;1184;23525;-62
2021/11/14 05:56:52;;;;;;;;;;;;;;;10.68;58.33;101543.14;117401;1183;23430;-60
2021/11/14 06:05:03;;;;;;;;;;;;;;;10.78;58.40;101549.68;117582;1185;24235;-62
2021/11/14 06:07:31;;;;;;;;;;;;;;;10.82;58.34;101550.59;117562;1185;22975;-62
2021/11/14 06:10:01;;;;;;;;;;;;;;;10.87;58.18;101543.94;117554;1185;22023;-61
2021/11/14 06:12:29;;;;;;;;;;;;;;;10.91;58.32;101543.08;117511;1184;22911;-60
2021/11/14 06:14:58;;;;;;;;;;;;;;;10.95;58.35;101540.64;117360;1184;23478;-61
2021/11/14 06:17:26;;;;;;;;;;;;;;;10.99;58.38;101540.84;117413;1185;21921;-61
2021/11/14 06:19:55;;;;;;;;;;;;;;;11.04;58.24;101542.27;117401;1185;23416;-62
2021/11/14 06:22:23;;;;;;;;;;;;;;;11.09;58.24;101542.80;117486;1185;23440;-61
2021/11/14 06:24:52;;;;;;;;;;;;;;;11.13;58.37;101548.27;117397;1184;21961;-60
2021/11/14 06:27:20;;;;;;;;;;;;;;;11.19;58.45;101548.83;117542;1183;22797;-59
2021/11/14 06:29:48;;;;;;;;;;;;;;;11.25;58.36;101549.38;117546;1183;23524;-61
2021/11/14 06:32:16;;;;;;;;;;;;;;;11.43;58.65;101549.42;117565;1183;21839;-61
2021/11/14 06:34:45;;;;;;;;;;;;;;;11.58;58.36;101549.12;117354;1182;22912;-60
2021/11/14 06:37:14;;;;;;;;;;;;;;;11.67;58.19;101551.95;118457;1184;22635;-61
2021/11/14 06:39:43;;;;;;;;;;;;;;;11.72;57.93;101549.15;117436;1185;23426;-60
2021/11/14 06:42:11;;;;;;;;;;;;;;;11.69;57.98;101543.69;117391;1184;23449;-60
2021/11/14 06:44:39;;;;;;;;;;;;;;;11.69;58.11;101541.94;117370;1182;23547;-61
2021/11/14 06:47:07;;;;;;;;;;;;;;;11.59;58.33;101543.33;117417;1185;21834;-61
2021/11/14 06:49:35;;;;;;;;;;;;;;;11.61;58.01;101544.90;117446;1183;21841;-60
2021/11/14 06:52:04;;;;;;;;;;;;;;;11.60;58.35;101548.77;117459;1184;22932;-61
2021/11/14 06:54:32;;;;;;;;;;;;;;;11.64;58.18;101545.62;117401;1185;21837;-60
2021/11/14 06:57:00;;;;;;;;;;;;;;;11.73;58.04;101542.29;117397;1183;23541;-60
2021/11/14 06:59:28;;;;;;;;;;;;;;;11.68;58.12;101539.48;117431;1185;23528;-60
2021/11/14 07:01:57;;;;;;;;;;;;;;;11.66;58.35;101538.95;117527;1183;21845;-61
2021/11/14 07:04:25;;;;;;;;;;;;;;;11.81;58.18;101540.72;117474;1186;23512;-61
2021/11/14 07:06:53;;;;;;;;;;;;;;;11.86;58.16;101536.16;117516;1185;23798;-61
2021/11/14 07:09:21;;;;;;;;;;;;;;;11.90;58.10;101528.23;117534;1185;23537;-61
2021/11/14 07:11:50;;;;;;;;;;;;;;;11.94;58.02;101524.36;117421;1182;21947;-61
2021/11/14 07:14:25;;;;;;;;;;;;;;;11.99;58.16;101517.00;117411;1183;23560;-61
2021/11/14 07:16:54;;;;;;;;;;;;;;;12.06;58.10;101514.55;117676;1184;23531;-61
2021/11/14 07:19:22;;;;;;;;;;;;;;;12.22;58.06;101515.59;117568;1185;21836;-62
2021/11/14 07:21:50;;;;;;;;;;;;;;;12.30;58.10;101514.02;117533;1185;22625;-62
2021/11/14 07:24:20;;;;;;;;;;;;;;;12.31;58.20;101514.02;117504;1185;21844;-62
2021/11/14 07:26:48;;;;;;;;;;;;;;;12.34;58.16;101515.59;117566;1183;21892;-62
2021/11/14 07:29:16;;;;;;;;;;;;;;;12.34;57.99;101520.70;117391;1185;23439;-60
2021/11/14 07:31:46;;;;;;;;;;;;;;;12.33;57.88;101522.64;117496;1180;23528;-61
2021/11/14 07:34:14;;;;;;;;;;;;;;;12.29;57.93;101519.29;117481;1186;21867;-62
2021/11/14 07:36:42;;;;;;;;;;;;;;;12.27;57.86;101520.35;117505;1185;23538;-60
2021/11/14 07:39:10;;;;;;;;;;;;;;;12.24;57.99;101520.88;117466;1185;21857;-62
2021/11/14 07:41:39;;;;;;;;;;;;;;;12.23;57.89;101513.31;117422;1185;23556;-60
2021/11/14 07:44:07;;;;;;;;;;;;;;;12.23;58.11;101513.48;117338;1183;21839;-61
2021/11/14 07:46:35;;;;;;;;;;;;;;;12.24;58.07;101514.20;117416;1185;23449;-61
2021/11/14 07:49:03;;;;;;;;;;;;;;;12.27;58.10;101517.88;117450;1179;23423;-60
2021/11/14 07:51:31;;;;;;;;;;;;;;;12.30;58.16;101514.36;117458;1185;21840;-60
2021/11/14 07:54:00;;;;;;;;;;;;;;;12.34;58.19;101518.05;117374;1184;21845;-61
2021/11/14 07:56:29;;;;;;;;;;;;;;;12.38;58.08;101524.54;117441;1182;24182;-60
2021/11/14 07:58:58;;;;;;;;;;;;;;;12.41;58.13;101528.42;117481;1184;21835;-62
2021/11/14 08:01:26;;;;;;;;;;;;;;;12.45;58.13;101529.83;117508;1186;21939;-61
2021/11/14 08:03:54;;;;;;;;;;;;;;;12.50;58.16;101532.11;117447;1185;22915;-60
2021/11/14 08:06:22;;;;;;;;;;;;;;;12.55;58.16;101538.44;117539;1182;21827;-62
2021/11/14 08:08:50;;;;;;;;;;;;;;;12.59;58.24;101539.30;117468;1182;21836;-61
2021/11/14 08:11:20;;;;;;;;;;;;;;;12.59;58.13;101538.42;117479;1182;23436;-61
2021/11/14 08:14:08;;;;;;;;;;;;;;;12.49;58.29;101540.20;117525;1186;21847;-61
2021/11/14 08:16:36;;;;;;;;;;;;;;;12.52;58.27;101538.27;117541;1182;23423;-61
2021/11/14 08:19:04;;;;;;;;;;;;;;;12.51;58.16;101546.38;117578;1182;22933;-61
2021/11/14 08:21:32;;;;;;;;;;;;;;;12.49;58.18;101547.43;117349;1185;23435;-61
2021/11/14 08:24:01;;;;;;;;;;;;;;;12.46;58.64;101547.60;117447;1185;23541;-60
2021/11/14 08:26:29;;;;;;;;;;;;;;;12.57;58.59;101544.42;117410;1176;24141;-60
2021/11/14 08:28:58;;;;;;;;;;;;;;;12.66;58.62;101544.39;117353;1185;21845;-60
2021/11/14 08:31:27;;;;;;;;;;;;;;;12.68;58.59;101546.16;117439;1185;23426;-60
2021/11/14 08:33:55;;;;;;;;;;;;;;;12.79;58.64;101549.28;117310;1184;22818;-60
2021/11/14 08:36:26;;;;;;;;;;;;;;;12.86;58.15;101552.80;117378;1185;21850;-62
2021/11/14 08:38:55;;;;;;;;;;;;;;;12.81;58.12;101549.83;117515;1185;21870;-62
2021/11/14 08:41:25;;;;;;;;;;;;;;;12.77;58.10;101548.95;117550;1185;22185;-62
2021/11/14 08:43:52;;;;;;;;;;;;;;;12.77;58.23;101544.90;117506;1182;21839;-60
2021/11/14 08:46:21;;;;;;;;;;;;;;;12.69;58.55;101542.11;117582;1184;22173;-60
2021/11/14 08:48:49;;;;;;;;;;;;;;;12.85;58.48;101539.23;117461;1185;23431;-60
2021/11/14 08:51:18;;;;;;;;;;;;;;;12.89;58.20;101536.77;117362;1188;21848;-61
2021/11/14 08:53:47;;;;;;;;;;;;;;;12.88;58.40;101532.89;117440;1184;21919;-60
2021/11/14 08:56:15;;;;;;;;;;;;;;;12.94;58.40;101529.88;117436;1185;21843;-61
2021/11/14 08:58:43;;;;;;;;;;;;;;;13.04;58.54;101528.24;117552;1184;24256;-61
2021/11/14 09:01:11;;;;;;;;;;;;;;;13.14;58.66;101527.67;117494;1185;21844;-60
2021/11/14 09:03:40;;;;;;;;;;;;;;;13.22;58.53;101526.41;117535;1182;21826;-60
2021/11/14 09:06:08;;;;;;;;;;;;;;;13.29;58.61;101520.20;117562;1185;23610;-61
2021/11/14 09:08:36;;;;;;;;;;;;;;;13.34;58.64;101515.77;117477;1182;22622;-60
2021/11/14 09:11:04;;;;;;;;;;;;;;;13.42;58.41;101519.63;117522;1183;24229;-61
2021/11/14 09:13:32;;;;;;;;;;;;;;;13.48;58.45;101518.71;117558;1183;24684;-60
2021/11/14 09:16:00;;;;;;;;;;;;;;;13.51;58.41;101519.75;117437;1186;21873;-60
2021/11/14 09:18:29;;;;;;;;;;;;;;;13.58;58.42;101519.35;117491;1185;23466;-60
2021/11/14 09:20:57;;;;;;;;;;;;;;;13.66;58.58;101518.94;117490;1185;21840;-61
2021/11/14 09:23:27;;;;;;;;;;;;;;;13.71;58.41;101516.63;117483;1182;22598;-62
2021/11/14 09:25:55;;;;;;;;;;;;;;;13.71;58.39;101516.96;117504;1185;23548;-62
2021/11/14 09:28:26;;;;;;;;;;;;;;;13.72;58.42;101516.79;117389;1185;21836;-60
2021/11/14 09:30:54;;;;;;;;;;;;;;;13.72;58.16;101518.91;117307;1184;23537;-60
2021/11/14 09:33:23;;;;;;;;;;;;;;;13.72;58.35;101515.73;117372;1182;22913;-60
2021/11/14 09:35:51;;;;;;;;;;;;;;;13.70;58.19;101515.73;117441;1182;21829;-62
2021/11/14 09:38:19;;;;;;;;;;;;;;;13.69;58.34;101512.21;117420;1184;21879;-61
2021/11/14 09:40:47;;;;;;;;;;;;;;;13.70;58.20;101513.80;117537;1182;22052;-61
2021/11/14 09:43:18;;;;;;;;;;;;;;;13.74;58.41;101510.41;117343;1180;22720;-60
2021/11/14 09:45:46;;;;;;;;;;;;;;;13.84;58.55;101510.54;117555;1182;21857;-62
2021/11/14 09:48:15;;;;;;;;;;;;;;;13.98;58.62;101504.94;117527;1179;24025;-63
2021/11/14 09:50:43;;;;;;;;;;;;;;;14.09;58.58;101508.39;117390;1185;22066;-62
2021/11/14 09:53:11;;;;;;;;;;;;;;;14.17;58.57;101502.13;117273;1182;21869;-62
2021/11/14 09:55:39;;;;;;;;;;;;;;;14.24;58.65;101498.55;117307;1182;22967;-62
2021/11/14 09:58:11;;;;;;;;;;;;;;;14.28;58.69;101497.80;117453;1179;21881;-62
2021/11/14 10:00:40;;;;;;;;;;;;;;;14.37;58.61;101492.41;117505;1184;23535;-60
2021/11/14 10:03:08;;;;;;;;;;;;;;;14.45;58.50;101487.55;117417;1185;23490;-62
2021/11/14 10:05:38;;;;;;;;;;;;;;;14.50;58.44;101486.27;117533;1184;23430;-60
2021/11/14 10:08:07;;;;;;;;;;;;;;;14.52;58.37;101483.23;117386;1185;22936;-60
2021/11/14 10:10:54;;;;;;;;;;;;;;;14.52;58.39;101479.37;117473;1182;23547;-62
2021/11/14 10:13:24;;;;;;;;;;;;;;;14.50;58.29;101474.27;117468;1184;22914;-60
2021/11/14 10:16:02;;;;;;;;;;;;;;;14.51;58.35;101471.08;117525;1182;22547;-60
2021/11/14 10:18:32;;;;;;;;;;;;;;;14.49;58.28;101465.27;117574;1184;21851;-62
2021/11/14 10:21:02;;;;;;;;;;;;;;;14.46;58.34;101462.83;117605;1182;23541;-61
2021/11/14 10:23:32;;;;;;;;;;;;;;;14.49;58.37;101465.08;117439;1182;22458;-62
2021/11/14 10:26:07;;;;;;;;;;;;;;;14.54;58.49;101461.15;117388;1182;21835;-60
2021/11/14 10:28:37;;;;;;;;;;;;;;;14.62;58.52;101459.27;117540;1184;22608;-60
2021/11/14 10:31:06;;;;;;;;;;;;;;;14.71;58.54;101457.61;117330;1184;21852;-60
2021/11/14 10:33:35;;;;;;;;;;;;;;;14.78;58.33;101455.95;117407;1182;24187;-60
2021/11/14 10:36:06;;;;;;;;;;;;;;;14.82;58.41;101458.89;117331;1185;21942;-62
2021/11/14 10:38:40;;;;;;;;;;;;;;;14.82;58.36;101460.84;117360;1184;21842;-63
2021/11/14 10:41:09;;;;;;;;;;;;;;;14.80;58.34;101458.73;117427;1185;23449;-59
2021/11/14 10:43:38;;;;;;;;;;;;;;;14.82;58.40;101457.65;117565;1185;24675;-56
2021/11/14 10:46:13;;;;;;;;;;;;;;;14.92;58.63;101452.05;117469;1182;23413;-56
2021/11/14 10:48:43;;;;;;;;;;;;;;;15.04;58.58;101451.19;117483;1182;22912;-59
2021/11/14 10:51:12;;;;;;;;;;;;;;;15.17;58.71;101451.89;117480;1185;21839;-59
2021/11/14 10:53:41;;;;;;;;;;;;;;;15.29;58.73;101450.12;117457;1185;21843;-56
2021/11/14 10:56:10;;;;;;;;;;;;;;;15.43;58.72;101445.33;117429;1184;21845;-59
2021/11/14 10:58:40;;;;;;;;;;;;;;;15.56;58.83;101440.87;117486;1185;21834;-56
2021/11/14 11:01:09;;;;;;;;;;;;;;;15.73;59.03;101434.76;117483;1185;22459;-59
2021/11/14 11:03:37;;;;;;;;;;;;;;;15.95;59.10;101436.52;117910;1185;23525;-57
2021/11/14 11:06:07;;;;;;;;;;;;;;;16.13;58.89;101436.03;117428;1185;24201;-59
2021/11/14 11:08:35;;;;;;;;;;;;;;;16.25;58.94;101432.45;117481;1184;21836;-56
2021/11/14 11:11:24;;;;;;;;;;;;;;;16.37;58.84;101428.66;117392;1182;23416;-57
2021/11/14 11:13:53;;;;;;;;;;;;;;;16.45;58.77;101428.68;117458;1182;23637;-60
2021/11/14 11:16:23;;;;;;;;;;;;;;;16.46;58.57;101427.41;117458;1184;21844;-57
2021/11/14 11:18:58;;;;;;;;;;;;;;;16.43;58.36;101420.41;117454;1185;23554;-56
2021/11/14 11:21:31;;;;;;;;;;;;;;;16.38;58.43;101419.77;117464;1185;21829;-56
2021/11/14 11:24:18;;;;;;;;;;;;;;;16.40;58.56;101419.58;117524;1184;21848;-56
2021/11/14 11:26:54;;;;;;;;;;;;;;;16.43;58.55;101420.76;117563;1186;23439;-59
2021/11/14 11:29:24;;;;;;;;;;;;;;;16.46;58.52;101418.38;117342;1185;23531;-60
2021/11/14 11:31:52;;;;;;;;;;;;;;;16.44;58.45;101419.48;117400;1185;21842;-56
2021/11/14 11:34:21;;;;;;;;;;;;;;;16.47;58.50;101420.87;117512;1179;23490;-59
2021/11/14 11:36:49;;;;;;;;;;;;;;;16.51;58.41;101420.06;117515;1182;23445;-59
2021/11/14 11:39:17;;;;;;;;;;;;;;;16.60;58.64;101414.56;117494;1185;22962;-56
2021/11/14 11:41:46;;;;;;;;;;;;;;;16.70;58.69;101412.95;117353;1185;23427;-57
2021/11/14 11:44:14;;;;;;;;;;;;;;;16.76;58.57;101414.22;117530;1185;21840;-58
2021/11/14 11:46:43;;;;;;;;;;;;;;;16.83;58.61;101412.13;117454;1184;21833;-56
2021/11/14 11:49:31;;;;;;;;;;;;;;;16.88;58.56;101410.95;117393;1179;22915;-57
2021/11/14 11:52:00;;;;;;;;;;;;;;;16.89;58.45;101410.21;117502;1183;21858;-59
2021/11/14 11:54:31;;;;;;;;;;;;;;;16.88;58.39;101409.52;117477;1183;22808;-59
2021/11/14 11:57:00;;;;;;;;;;;;;;;16.87;58.27;101404.42;117407;1185;23420;-59
2021/11/14 11:59:30;;;;;;;;;;;;;;;16.79;58.14;101407.06;117375;1185;23551;-58
2021/11/14 12:02:09;;;;;;;;;;;;;;;16.64;58.07;101404.55;117993;1185;21835;-59
2021/11/14 12:04:39;;;;;;;;;;;;;;;16.52;57.96;101407.48;117444;1185;22812;-57
2021/11/14 12:07:09;;;;;;;;;;;;;;;16.41;57.92;101410.54;117453;1185;23442;-60
2021/11/14 12:09:40;;;;;;;;;;;;;;;16.30;57.92;101411.45;117320;1185;21838;-56
2021/11/14 12:12:25;;;;;;;;;;;;;;;16.15;57.96;101412.98;117432;1185;21848;-59
2021/11/14 12:15:01;;;;;;;;;;;;;;;16.00;58.11;101416.08;117420;1186;23445;-57
2021/11/14 12:17:30;;;;;;;;;;;;;;;15.96;57.90;101415.64;117430;1176;22806;-59
2021/11/14 12:20:06;;;;;;;;;;;;;;;15.88;57.98;101417.17;117518;1184;21839;-57
2021/11/14 12:22:39;;;;;;;;;;;;;;;15.86;58.06;101414.55;117490;1182;23524;-60
2021/11/14 12:25:08;;;;;;;;;;;;;;;15.89;58.10;101407.45;117438;1185;24139;-56
2021/11/14 12:27:36;;;;;;;;;;;;;;;15.90;58.21;101405.27;117460;1183;22631;-60
2021/11/14 12:30:08;;;;;;;;;;;;;;;15.89;58.28;101402.31;117431;1183;22076;-59
2021/11/14 12:32:43;;;;;;;;;;;;;;;15.92;58.36;101403.14;117504;1186;22892;-56
2021/11/14 12:35:14;;;;;;;;;;;;;;;15.98;58.33;101400.37;117517;1179;23638;-59
2021/11/14 12:37:48;;;;;;;;;;;;;;;16.01;58.28;101396.96;117522;1182;22007;-60
2021/11/14 12:40:21;;;;;;;;;;;;;;;16.01;58.22;101395.89;117404;1185;22915;-59
2021/11/14 12:42:49;;;;;;;;;;;;;;;15.99;58.22;101395.56;117514;1184;21839;-59
2021/11/14 12:45:18;;;;;;;;;;;;;;;15.97;58.19;101395.25;117463;1185;23636;-59